sensor_id;sensor_type;location;lat;lon;timestamp;P1;durP1;ratioP1;P2;durP2;ratioP2
44772;SDS011;30492;52.088;5.122;2022-08-19T00:00:24;5.72;;;4.68;;
44772;SDS011;30492;52.088;5.122;2022-08-19T00:07:44;7.57;;;5.03;;
44772;SDS011;30492;52.088;5.122;2022-08-19T00:11:23;9.02;;;4.85;;
44772;SDS011;30492;52.088;5.122;2022-08-19T00:15:03;8.88;;;5.10;;
44772;SDS011;30492;52.088;5.122;2022-08-19T00:18:43;7.57;;;4.93;;
44772;SDS011;30492;52.088;5.122;2022-08-19T00:22:21;7.22;;;5.10;;
44772;SDS011;30492;52.088;5.122;2022-08-19T00:26:00;8.43;;;5.90;;
44772;SDS011;30492;52.088;5.122;2022-08-19T00:29:41;6.97;;;5.25;;
44772;SDS011;30492;52.088;5.122;2022-08-19T00:33:20;6.70;;;4.90;;
44772;SDS011;30492;52.088;5.122;2022-08-19T00:36:59;6.47;;;5.20;;
44772;SDS011;30492;52.088;5.122;2022-08-19T00:40:38;7.28;;;4.65;;
44772;SDS011;30492;52.088;5.122;2022-08-19T00:44:18;5.47;;;4.97;;
44772;SDS011;30492;52.088;5.122;2022-08-19T00:48:00;8.43;;;4.93;;
44772;SDS011;30492;52.088;5.122;2022-08-19T00:51:40;8.60;;;5.60;;
44772;SDS011;30492;52.088;5.122;2022-08-19T00:55:21;5.93;;;5.32;;
44772;SDS011;30492;52.088;5.122;2022-08-19T00:59:03;6.93;;;6.00;;
44772;SDS011;30492;52.088;5.122;2022-08-19T01:02:42;6.85;;;4.75;;
44772;SDS011;30492;52.088;5.122;2022-08-19T01:06:25;7.22;;;5.30;;
44772;SDS011;30492;52.088;5.122;2022-08-19T01:10:05;8.60;;;5.15;;
44772;SDS011;30492;52.088;5.122;2022-08-19T01:13:46;7.65;;;5.47;;
44772;SDS011;30492;52.088;5.122;2022-08-19T01:17:26;6.00;;;5.38;;
44772;SDS011;30492;52.088;5.122;2022-08-19T01:21:09;10.75;;;6.32;;
44772;SDS011;30492;52.088;5.122;2022-08-19T01:24:57;11.13;;;5.70;;
44772;SDS011;30492;52.088;5.122;2022-08-19T01:28:35;11.60;;;6.35;;
44772;SDS011;30492;52.088;5.122;2022-08-19T01:32:17;10.82;;;8.00;;
44772;SDS011;30492;52.088;5.122;2022-08-19T01:36:03;9.20;;;8.30;;
44772;SDS011;30492;52.088;5.122;2022-08-19T01:39:43;15.20;;;12.35;;
44772;SDS011;30492;52.088;5.122;2022-08-19T01:43:23;15.23;;;11.10;;
44772;SDS011;30492;52.088;5.122;2022-08-19T01:47:02;20.48;;;15.63;;
44772;SDS011;30492;52.088;5.122;2022-08-19T01:50:21;19.00;;;16.85;;
44772;SDS011;30492;52.088;5.122;2022-08-19T01:54:01;24.00;;;18.27;;
44772;SDS011;30492;52.088;5.122;2022-08-19T01:57:42;19.42;;;15.75;;
44772;SDS011;30492;52.088;5.122;2022-08-19T02:01:30;21.70;;;17.35;;
44772;SDS011;30492;52.088;5.122;2022-08-19T02:05:08;19.42;;;16.45;;
44772;SDS011;30492;52.088;5.122;2022-08-19T02:08:48;20.88;;;16.38;;
44772;SDS011;30492;52.088;5.122;2022-08-19T02:12:26;22.77;;;18.67;;
44772;SDS011;30492;52.088;5.122;2022-08-19T02:16:04;22.15;;;18.02;;
44772;SDS011;30492;52.088;5.122;2022-08-19T02:19:24;24.13;;;19.35;;
44772;SDS011;30492;52.088;5.122;2022-08-19T02:23:03;20.95;;;17.02;;
44772;SDS011;30492;52.088;5.122;2022-08-19T02:26:42;20.67;;;18.25;;
44772;SDS011;30492;52.088;5.122;2022-08-19T02:30:21;22.92;;;18.58;;
44772;SDS011;30492;52.088;5.122;2022-08-19T02:34:00;22.50;;;18.42;;
44772;SDS011;30492;52.088;5.122;2022-08-19T02:37:41;20.45;;;17.52;;
44772;SDS011;30492;52.088;5.122;2022-08-19T02:41:19;19.98;;;15.50;;
44772;SDS011;30492;52.088;5.122;2022-08-19T02:45:01;24.70;;;17.52;;
44772;SDS011;30492;52.088;5.122;2022-08-19T02:48:41;22.20;;;18.08;;
44772;SDS011;30492;52.088;5.122;2022-08-19T02:52:19;23.83;;;19.70;;
44772;SDS011;30492;52.088;5.122;2022-08-19T02:55:46;20.05;;;17.27;;
44772;SDS011;30492;52.088;5.122;2022-08-19T02:59:25;24.58;;;19.08;;
44772;SDS011;30492;52.088;5.122;2022-08-19T03:03:07;26.23;;;18.23;;
44772;SDS011;30492;52.088;5.122;2022-08-19T03:06:47;23.77;;;19.55;;
44772;SDS011;30492;52.088;5.122;2022-08-19T03:10:25;25.75;;;19.08;;
44772;SDS011;30492;52.088;5.122;2022-08-19T03:14:05;24.38;;;18.65;;
44772;SDS011;30492;52.088;5.122;2022-08-19T03:17:45;23.05;;;19.20;;
44772;SDS011;30492;52.088;5.122;2022-08-19T03:21:25;23.05;;;17.23;;
44772;SDS011;30492;52.088;5.122;2022-08-19T03:25:05;27.58;;;18.45;;
44772;SDS011;30492;52.088;5.122;2022-08-19T03:28:45;17.33;;;15.32;;
44772;SDS011;30492;52.088;5.122;2022-08-19T03:32:25;27.90;;;19.70;;
44772;SDS011;30492;52.088;5.122;2022-08-19T03:36:05;21.10;;;17.70;;
44772;SDS011;30492;52.088;5.122;2022-08-19T03:39:45;23.38;;;18.27;;
44772;SDS011;30492;52.088;5.122;2022-08-19T03:43:23;22.25;;;18.38;;
44772;SDS011;30492;52.088;5.122;2022-08-19T03:47:04;26.33;;;19.50;;
44772;SDS011;30492;52.088;5.122;2022-08-19T03:50:48;26.38;;;18.52;;
44772;SDS011;30492;52.088;5.122;2022-08-19T03:54:27;29.67;;;17.88;;
44772;SDS011;30492;52.088;5.122;2022-08-19T03:57:46;22.58;;;18.45;;
44772;SDS011;30492;52.088;5.122;2022-08-19T04:01:25;23.77;;;17.98;;
44772;SDS011;30492;52.088;5.122;2022-08-19T04:05:06;23.15;;;18.15;;
44772;SDS011;30492;52.088;5.122;2022-08-19T04:08:46;23.35;;;16.98;;
44772;SDS011;30492;52.088;5.122;2022-08-19T04:12:30;18.98;;;15.85;;
44772;SDS011;30492;52.088;5.122;2022-08-19T04:16:08;21.55;;;17.98;;
44772;SDS011;30492;52.088;5.122;2022-08-19T04:19:48;20.17;;;15.93;;
44772;SDS011;30492;52.088;5.122;2022-08-19T04:23:27;22.98;;;17.88;;
44772;SDS011;30492;52.088;5.122;2022-08-19T04:27:08;26.90;;;17.25;;
44772;SDS011;30492;52.088;5.122;2022-08-19T04:30:48;26.90;;;18.42;;
44772;SDS011;30492;52.088;5.122;2022-08-19T04:34:28;21.90;;;19.10;;
44772;SDS011;30492;52.088;5.122;2022-08-19T04:38:08;23.00;;;18.80;;
44772;SDS011;30492;52.088;5.122;2022-08-19T04:45:46;31.08;;;19.95;;
44772;SDS011;30492;52.088;5.122;2022-08-19T04:49:25;27.52;;;21.00;;
44772;SDS011;30492;52.088;5.122;2022-08-19T04:53:05;24.52;;;20.42;;
44772;SDS011;30492;52.088;5.122;2022-08-19T04:56:44;27.38;;;18.25;;
44772;SDS011;30492;52.088;5.122;2022-08-19T05:00:23;29.83;;;21.35;;
44772;SDS011;30492;52.088;5.122;2022-08-19T05:04:04;31.33;;;23.02;;
44772;SDS011;30492;52.088;5.122;2022-08-19T05:07:42;30.58;;;22.73;;
44772;SDS011;30492;52.088;5.122;2022-08-19T05:11:22;34.33;;;26.23;;
44772;SDS011;30492;52.088;5.122;2022-08-19T05:15:05;40.45;;;27.40;;
44772;SDS011;30492;52.088;5.122;2022-08-19T05:18:45;41.70;;;27.63;;
44772;SDS011;30492;52.088;5.122;2022-08-19T05:22:43;43.85;;;29.25;;
44772;SDS011;30492;52.088;5.122;2022-08-19T05:26:04;44.70;;;31.17;;
44772;SDS011;30492;52.088;5.122;2022-08-19T05:29:44;49.38;;;33.47;;
44772;SDS011;30492;52.088;5.122;2022-08-19T05:33:23;46.80;;;31.08;;
44772;SDS011;30492;52.088;5.122;2022-08-19T05:37:02;50.42;;;32.83;;
44772;SDS011;30492;52.088;5.122;2022-08-19T05:40:43;52.53;;;34.72;;
44772;SDS011;30492;52.088;5.122;2022-08-19T05:44:22;58.25;;;36.30;;
44772;SDS011;30492;52.088;5.122;2022-08-19T05:48:01;53.70;;;32.72;;
44772;SDS011;30492;52.088;5.122;2022-08-19T05:55:21;48.35;;;30.65;;
44772;SDS011;30492;52.088;5.122;2022-08-19T05:59:10;52.85;;;32.85;;
44772;SDS011;30492;52.088;5.122;2022-08-19T06:02:52;54.13;;;35.88;;
44772;SDS011;30492;52.088;5.122;2022-08-19T06:06:33;57.45;;;35.55;;
44772;SDS011;30492;52.088;5.122;2022-08-19T06:10:12;58.20;;;35.13;;
44772;SDS011;30492;52.088;5.122;2022-08-19T06:13:53;57.67;;;35.03;;
44772;SDS011;30492;52.088;5.122;2022-08-19T06:17:32;64.65;;;35.83;;
44772;SDS011;30492;52.088;5.122;2022-08-19T06:21:12;77.32;;;39.70;;
44772;SDS011;30492;52.088;5.122;2022-08-19T06:24:51;67.65;;;37.88;;
44772;SDS011;30492;52.088;5.122;2022-08-19T06:28:33;87.93;;;42.83;;
44772;SDS011;30492;52.088;5.122;2022-08-19T06:32:14;73.33;;;38.77;;
44772;SDS011;30492;52.088;5.122;2022-08-19T06:35:55;72.45;;;36.83;;
44772;SDS011;30492;52.088;5.122;2022-08-19T06:39:35;76.85;;;40.85;;
44772;SDS011;30492;52.088;5.122;2022-08-19T06:43:16;84.60;;;46.42;;
44772;SDS011;30492;52.088;5.122;2022-08-19T06:50:33;90.55;;;47.25;;
44772;SDS011;30492;52.088;5.122;2022-08-19T06:54:12;61.95;;;39.22;;
44772;SDS011;30492;52.088;5.122;2022-08-19T06:57:57;81.78;;;45.63;;
44772;SDS011;30492;52.088;5.122;2022-08-19T07:01:38;80.93;;;46.80;;
44772;SDS011;30492;52.088;5.122;2022-08-19T07:05:19;93.85;;;50.80;;
44772;SDS011;30492;52.088;5.122;2022-08-19T07:08:58;77.90;;;46.80;;
44772;SDS011;30492;52.088;5.122;2022-08-19T07:12:37;71.13;;;43.88;;
44772;SDS011;30492;52.088;5.122;2022-08-19T07:16:17;81.40;;;47.35;;
44772;SDS011;30492;52.088;5.122;2022-08-19T07:19:57;78.50;;;45.65;;
44772;SDS011;30492;52.088;5.122;2022-08-19T07:23:38;64.07;;;39.58;;
44772;SDS011;30492;52.088;5.122;2022-08-19T07:27:17;79.50;;;45.78;;
44772;SDS011;30492;52.088;5.122;2022-08-19T07:30:38;67.60;;;40.50;;
44772;SDS011;30492;52.088;5.122;2022-08-19T07:34:17;66.50;;;39.63;;
44772;SDS011;30492;52.088;5.122;2022-08-19T07:38:03;49.08;;;30.83;;
44772;SDS011;30492;52.088;5.122;2022-08-19T07:41:42;54.83;;;35.03;;
44772;SDS011;30492;52.088;5.122;2022-08-19T07:45:21;64.10;;;37.50;;
44772;SDS011;30492;52.088;5.122;2022-08-19T07:49:01;63.10;;;39.13;;
44772;SDS011;30492;52.088;5.122;2022-08-19T07:52:45;52.40;;;34.60;;
44772;SDS011;30492;52.088;5.122;2022-08-19T07:56:24;56.40;;;37.80;;
44772;SDS011;30492;52.088;5.122;2022-08-19T08:00:04;63.05;;;38.75;;
44772;SDS011;30492;52.088;5.122;2022-08-19T08:03:43;65.05;;;39.53;;
44772;SDS011;30492;52.088;5.122;2022-08-19T08:07:44;64.47;;;41.05;;
44772;SDS011;30492;52.088;5.122;2022-08-19T08:11:40;58.22;;;36.55;;
44772;SDS011;30492;52.088;5.122;2022-08-19T08:15:21;57.15;;;38.33;;
44772;SDS011;30492;52.088;5.122;2022-08-19T08:19:00;67.00;;;39.30;;
44772;SDS011;30492;52.088;5.122;2022-08-19T08:22:42;54.00;;;36.35;;
44772;SDS011;30492;52.088;5.122;2022-08-19T08:26:42;49.97;;;35.00;;
44772;SDS011;30492;52.088;5.122;2022-08-19T08:30:23;51.22;;;36.05;;
44772;SDS011;30492;52.088;5.122;2022-08-19T08:34:06;58.65;;;38.50;;
44772;SDS011;30492;52.088;5.122;2022-08-19T08:41:28;49.77;;;29.73;;
44772;SDS011;30492;52.088;5.122;2022-08-19T08:45:14;34.92;;;26.75;;
44772;SDS011;30492;52.088;5.122;2022-08-19T08:48:57;37.05;;;25.80;;
44772;SDS011;30492;52.088;5.122;2022-08-19T08:52:45;42.35;;;27.52;;
44772;SDS011;30492;52.088;5.122;2022-08-19T08:56:27;36.88;;;23.58;;
44772;SDS011;30492;52.088;5.122;2022-08-19T09:00:15;48.78;;;31.85;;
44772;SDS011;30492;52.088;5.122;2022-08-19T09:03:56;49.88;;;31.30;;
44772;SDS011;30492;52.088;5.122;2022-08-19T09:07:39;60.60;;;30.83;;
44772;SDS011;30492;52.088;5.122;2022-08-19T09:11:24;49.28;;;31.98;;
44772;SDS011;30492;52.088;5.122;2022-08-19T09:15:25;56.05;;;30.15;;
44772;SDS011;30492;52.088;5.122;2022-08-19T09:19:10;47.38;;;34.83;;
44772;SDS011;30492;52.088;5.122;2022-08-19T09:22:50;52.22;;;33.67;;
44772;SDS011;30492;52.088;5.122;2022-08-19T09:26:29;46.65;;;34.25;;
44772;SDS011;30492;52.088;5.122;2022-08-19T09:30:13;54.08;;;34.00;;
44772;SDS011;30492;52.088;5.122;2022-08-19T09:33:55;50.90;;;35.15;;
44772;SDS011;30492;52.088;5.122;2022-08-19T09:37:35;41.75;;;28.85;;
44772;SDS011;30492;52.088;5.122;2022-08-19T09:41:15;54.08;;;34.42;;
44772;SDS011;30492;52.088;5.122;2022-08-19T09:44:55;46.78;;;33.38;;
44772;SDS011;30492;52.088;5.122;2022-08-19T09:52:18;41.47;;;29.85;;
44772;SDS011;30492;52.088;5.122;2022-08-19T09:55:56;44.15;;;32.70;;
44772;SDS011;30492;52.088;5.122;2022-08-19T09:59:34;50.20;;;31.40;;
44772;SDS011;30492;52.088;5.122;2022-08-19T10:03:13;45.70;;;31.35;;
44772;SDS011;30492;52.088;5.122;2022-08-19T10:06:55;41.40;;;30.38;;
44772;SDS011;30492;52.088;5.122;2022-08-19T10:10:35;39.63;;;29.35;;
44772;SDS011;30492;52.088;5.122;2022-08-19T10:14:13;44.85;;;30.85;;
44772;SDS011;30492;52.088;5.122;2022-08-19T10:17:52;35.13;;;24.60;;
44772;SDS011;30492;52.088;5.122;2022-08-19T10:21:32;34.90;;;23.63;;
44772;SDS011;30492;52.088;5.122;2022-08-19T10:25:12;42.92;;;25.98;;
44772;SDS011;30492;52.088;5.122;2022-08-19T10:28:51;29.65;;;21.10;;
44772;SDS011;30492;52.088;5.122;2022-08-19T10:32:31;40.83;;;28.10;;
44772;SDS011;30492;52.088;5.122;2022-08-19T10:36:12;47.27;;;28.93;;
44772;SDS011;30492;52.088;5.122;2022-08-19T10:39:53;51.97;;;30.77;;
44772;SDS011;30492;52.088;5.122;2022-08-19T10:43:33;41.58;;;27.45;;
44772;SDS011;30492;52.088;5.122;2022-08-19T10:47:12;42.13;;;28.00;;
44772;SDS011;30492;52.088;5.122;2022-08-19T10:50:51;47.05;;;30.75;;
44772;SDS011;30492;52.088;5.122;2022-08-19T10:54:48;45.72;;;31.27;;
44772;SDS011;30492;52.088;5.122;2022-08-19T10:58:45;36.40;;;22.55;;
44772;SDS011;30492;52.088;5.122;2022-08-19T11:02:26;43.08;;;29.95;;
44772;SDS011;30492;52.088;5.122;2022-08-19T11:06:06;38.05;;;24.85;;
44772;SDS011;30492;52.088;5.122;2022-08-19T11:09:47;39.33;;;27.15;;
44772;SDS011;30492;52.088;5.122;2022-08-19T11:13:26;33.13;;;23.33;;
44772;SDS011;30492;52.088;5.122;2022-08-19T11:20:46;40.67;;;27.53;;
44772;SDS011;30492;52.088;5.122;2022-08-19T11:24:25;43.88;;;28.02;;
44772;SDS011;30492;52.088;5.122;2022-08-19T11:28:04;41.50;;;27.33;;
44772;SDS011;30492;52.088;5.122;2022-08-19T11:31:44;35.72;;;26.48;;
44772;SDS011;30492;52.088;5.122;2022-08-19T11:35:26;43.03;;;27.05;;
44772;SDS011;30492;52.088;5.122;2022-08-19T11:42:44;40.50;;;28.33;;
44772;SDS011;30492;52.088;5.122;2022-08-19T11:46:26;44.25;;;29.15;;
44772;SDS011;30492;52.088;5.122;2022-08-19T11:50:05;27.05;;;18.23;;
44772;SDS011;30492;52.088;5.122;2022-08-19T11:53:47;18.40;;;13.25;;
44772;SDS011;30492;52.088;5.122;2022-08-19T11:57:26;20.40;;;13.13;;
44772;SDS011;30492;52.088;5.122;2022-08-19T12:01:06;18.50;;;11.95;;
44772;SDS011;30492;52.088;5.122;2022-08-19T12:04:46;15.68;;;9.40;;
44772;SDS011;30492;52.088;5.122;2022-08-19T12:08:25;19.25;;;10.20;;
44772;SDS011;30492;52.088;5.122;2022-08-19T12:12:05;18.58;;;10.30;;
44772;SDS011;30492;52.088;5.122;2022-08-19T12:15:45;14.55;;;10.07;;
44772;SDS011;30492;52.088;5.122;2022-08-19T12:19:24;16.40;;;10.57;;
44772;SDS011;30492;52.088;5.122;2022-08-19T12:23:03;13.43;;;8.85;;
44772;SDS011;30492;52.088;5.122;2022-08-19T12:26:47;22.85;;;9.43;;
44772;SDS011;30492;52.088;5.122;2022-08-19T12:30:30;16.35;;;8.23;;
44772;SDS011;30492;52.088;5.122;2022-08-19T12:34:09;16.85;;;8.20;;
44772;SDS011;30492;52.088;5.122;2022-08-19T12:37:50;15.25;;;8.65;;
44772;SDS011;30492;52.088;5.122;2022-08-19T12:41:29;15.33;;;7.93;;
44772;SDS011;30492;52.088;5.122;2022-08-19T12:45:09;13.23;;;8.18;;
44772;SDS011;30492;52.088;5.122;2022-08-19T12:48:50;13.40;;;7.47;;
44772;SDS011;30492;52.088;5.122;2022-08-19T12:52:28;8.05;;;5.45;;
44772;SDS011;30492;52.088;5.122;2022-08-19T12:59:47;12.57;;;6.07;;
44772;SDS011;30492;52.088;5.122;2022-08-19T13:03:30;14.95;;;6.03;;
44772;SDS011;30492;52.088;5.122;2022-08-19T13:06:50;10.55;;;4.97;;
44772;SDS011;30492;52.088;5.122;2022-08-19T13:10:30;14.52;;;5.55;;
44772;SDS011;30492;52.088;5.122;2022-08-19T13:14:10;8.90;;;4.35;;
44772;SDS011;30492;52.088;5.122;2022-08-19T13:17:50;4.57;;;3.03;;
44772;SDS011;30492;52.088;5.122;2022-08-19T13:21:30;10.65;;;6.60;;
44772;SDS011;30492;52.088;5.122;2022-08-19T13:25:11;6.60;;;3.53;;
44772;SDS011;30492;52.088;5.122;2022-08-19T13:28:51;14.95;;;5.10;;
44772;SDS011;30492;52.088;5.122;2022-08-19T13:32:47;17.70;;;6.70;;
44772;SDS011;30492;52.088;5.122;2022-08-19T13:36:45;6.93;;;4.63;;
44772;SDS011;30492;52.088;5.122;2022-08-19T13:40:26;6.35;;;3.95;;
44772;SDS011;30492;52.088;5.122;2022-08-19T13:44:05;8.02;;;4.60;;
44772;SDS011;30492;52.088;5.122;2022-08-19T13:47:45;10.50;;;5.93;;
44772;SDS011;30492;52.088;5.122;2022-08-19T13:51:23;10.95;;;6.38;;
44772;SDS011;30492;52.088;5.122;2022-08-19T13:55:01;8.93;;;5.10;;
44772;SDS011;30492;52.088;5.122;2022-08-19T13:58:42;8.37;;;4.73;;
44772;SDS011;30492;52.088;5.122;2022-08-19T14:02:14;10.32;;;6.03;;
44772;SDS011;30492;52.088;5.122;2022-08-19T14:05:53;10.63;;;5.30;;
44772;SDS011;30492;52.088;5.122;2022-08-19T14:09:11;10.02;;;5.65;;
44772;SDS011;30492;52.088;5.122;2022-08-19T14:12:53;11.27;;;6.32;;
44772;SDS011;30492;52.088;5.122;2022-08-19T14:16:34;8.48;;;5.25;;
44772;SDS011;30492;52.088;5.122;2022-08-19T14:20:13;10.70;;;5.70;;
44772;SDS011;30492;52.088;5.122;2022-08-19T14:27:32;5.70;;;4.55;;
44772;SDS011;30492;52.088;5.122;2022-08-19T14:31:11;7.18;;;4.13;;
44772;SDS011;30492;52.088;5.122;2022-08-19T14:34:51;6.15;;;4.70;;
44772;SDS011;30492;52.088;5.122;2022-08-19T14:38:28;4.82;;;4.18;;
44772;SDS011;30492;52.088;5.122;2022-08-19T14:42:06;7.80;;;5.22;;
44772;SDS011;30492;52.088;5.122;2022-08-19T14:45:45;7.47;;;4.10;;
44772;SDS011;30492;52.088;5.122;2022-08-19T14:49:24;8.07;;;3.67;;
44772;SDS011;30492;52.088;5.122;2022-08-19T14:53:05;5.00;;;4.00;;
44772;SDS011;30492;52.088;5.122;2022-08-19T14:56:45;5.25;;;3.58;;
44772;SDS011;30492;52.088;5.122;2022-08-19T15:00:25;8.32;;;5.05;;
44772;SDS011;30492;52.088;5.122;2022-08-19T15:07:43;10.70;;;6.43;;
44772;SDS011;30492;52.088;5.122;2022-08-19T15:11:24;9.33;;;6.83;;
44772;SDS011;30492;52.088;5.122;2022-08-19T15:15:05;10.77;;;6.93;;
44772;SDS011;30492;52.088;5.122;2022-08-19T15:18:49;8.50;;;6.35;;
44772;SDS011;30492;52.088;5.122;2022-08-19T15:22:28;10.43;;;7.20;;
44772;SDS011;30492;52.088;5.122;2022-08-19T15:26:07;10.40;;;6.55;;
44772;SDS011;30492;52.088;5.122;2022-08-19T15:29:47;15.40;;;8.25;;
44772;SDS011;30492;52.088;5.122;2022-08-19T15:33:26;7.88;;;5.95;;
44772;SDS011;30492;52.088;5.122;2022-08-19T15:40:46;7.72;;;5.20;;
44772;SDS011;30492;52.088;5.122;2022-08-19T15:44:47;10.20;;;6.43;;
44772;SDS011;30492;52.088;5.122;2022-08-19T15:48:25;11.68;;;7.15;;
44772;SDS011;30492;52.088;5.122;2022-08-19T15:52:05;8.80;;;6.63;;
44772;SDS011;30492;52.088;5.122;2022-08-19T15:55:44;8.27;;;6.40;;
44772;SDS011;30492;52.088;5.122;2022-08-19T15:59:22;9.23;;;6.20;;
44772;SDS011;30492;52.088;5.122;2022-08-19T16:03:20;9.52;;;4.55;;
44772;SDS011;30492;52.088;5.122;2022-08-19T16:07:15;6.85;;;3.85;;
44772;SDS011;30492;52.088;5.122;2022-08-19T16:10:54;4.90;;;3.05;;
44772;SDS011;30492;52.088;5.122;2022-08-19T16:14:33;6.82;;;3.38;;
44772;SDS011;30492;52.088;5.122;2022-08-19T16:18:13;5.75;;;3.75;;
44772;SDS011;30492;52.088;5.122;2022-08-19T16:21:54;6.50;;;3.67;;
44772;SDS011;30492;52.088;5.122;2022-08-19T16:25:13;9.57;;;3.60;;
44772;SDS011;30492;52.088;5.122;2022-08-19T16:28:57;8.02;;;4.28;;
44772;SDS011;30492;52.088;5.122;2022-08-19T16:36:20;6.18;;;3.25;;
44772;SDS011;30492;52.088;5.122;2022-08-19T16:40:01;8.20;;;4.45;;
44772;SDS011;30492;52.088;5.122;2022-08-19T16:43:41;10.18;;;4.57;;
44772;SDS011;30492;52.088;5.122;2022-08-19T16:47:24;7.13;;;5.32;;
44772;SDS011;30492;52.088;5.122;2022-08-19T16:51:02;7.00;;;4.43;;
44772;SDS011;30492;52.088;5.122;2022-08-19T16:54:41;10.98;;;5.28;;
44772;SDS011;30492;52.088;5.122;2022-08-19T16:58:21;6.38;;;4.80;;
44772;SDS011;30492;52.088;5.122;2022-08-19T17:02:01;11.73;;;5.45;;
44772;SDS011;30492;52.088;5.122;2022-08-19T17:05:40;6.53;;;4.55;;
44772;SDS011;30492;52.088;5.122;2022-08-19T17:09:20;6.78;;;5.05;;
44772;SDS011;30492;52.088;5.122;2022-08-19T17:12:58;8.18;;;3.25;;
44772;SDS011;30492;52.088;5.122;2022-08-19T17:16:38;5.30;;;2.30;;
44772;SDS011;30492;52.088;5.122;2022-08-19T17:20:18;5.63;;;2.42;;
44772;SDS011;30492;52.088;5.122;2022-08-19T17:23:57;4.90;;;2.58;;
44772;SDS011;30492;52.088;5.122;2022-08-19T17:27:38;6.03;;;2.70;;
44772;SDS011;30492;52.088;5.122;2022-08-19T17:31:16;2.72;;;2.10;;
44772;SDS011;30492;52.088;5.122;2022-08-19T17:38:38;4.93;;;2.65;;
44772;SDS011;30492;52.088;5.122;2022-08-19T17:45:57;2.75;;;1.63;;
44772;SDS011;30492;52.088;5.122;2022-08-19T17:49:36;4.18;;;2.30;;
44772;SDS011;30492;52.088;5.122;2022-08-19T17:53:15;2.67;;;1.60;;
44772;SDS011;30492;52.088;5.122;2022-08-19T17:56:53;9.70;;;2.45;;
44772;SDS011;30492;52.088;5.122;2022-08-19T18:00:32;2.88;;;1.88;;
44772;SDS011;30492;52.088;5.122;2022-08-19T18:04:11;3.38;;;1.73;;
44772;SDS011;30492;52.088;5.122;2022-08-19T18:07:49;5.03;;;1.83;;
44772;SDS011;30492;52.088;5.122;2022-08-19T18:11:30;2.28;;;1.30;;
44772;SDS011;30492;52.088;5.122;2022-08-19T18:15:09;3.80;;;1.42;;
44772;SDS011;30492;52.088;5.122;2022-08-19T18:18:49;4.78;;;1.63;;
44772;SDS011;30492;52.088;5.122;2022-08-19T18:22:29;3.45;;;2.03;;
44772;SDS011;30492;52.088;5.122;2022-08-19T18:26:10;6.97;;;2.10;;
44772;SDS011;30492;52.088;5.122;2022-08-19T18:29:50;2.53;;;1.88;;
44772;SDS011;30492;52.088;5.122;2022-08-19T18:33:30;3.92;;;1.90;;
44772;SDS011;30492;52.088;5.122;2022-08-19T18:37:28;5.88;;;2.25;;
44772;SDS011;30492;52.088;5.122;2022-08-19T18:41:07;3.88;;;1.80;;
44772;SDS011;30492;52.088;5.122;2022-08-19T18:45:05;2.47;;;1.70;;
44772;SDS011;30492;52.088;5.122;2022-08-19T18:49:03;4.85;;;1.45;;
44772;SDS011;30492;52.088;5.122;2022-08-19T18:52:41;2.13;;;1.70;;
44772;SDS011;30492;52.088;5.122;2022-08-19T18:56:19;2.58;;;1.40;;
44772;SDS011;30492;52.088;5.122;2022-08-19T19:00:02;2.67;;;1.70;;
44772;SDS011;30492;52.088;5.122;2022-08-19T19:03:44;4.40;;;1.67;;
44772;SDS011;30492;52.088;5.122;2022-08-19T19:07:25;5.05;;;2.55;;
44772;SDS011;30492;52.088;5.122;2022-08-19T19:10:45;4.03;;;1.80;;
44772;SDS011;30492;52.088;5.122;2022-08-19T19:14:25;3.30;;;2.00;;
44772;SDS011;30492;52.088;5.122;2022-08-19T19:18:06;3.35;;;1.70;;
44772;SDS011;30492;52.088;5.122;2022-08-19T19:21:46;8.85;;;1.80;;
44772;SDS011;30492;52.088;5.122;2022-08-19T19:25:27;4.57;;;3.05;;
44772;SDS011;30492;52.088;5.122;2022-08-19T19:29:09;5.78;;;3.92;;
44772;SDS011;30492;52.088;5.122;2022-08-19T19:32:49;7.40;;;4.32;;
44772;SDS011;30492;52.088;5.122;2022-08-19T19:36:29;5.80;;;4.55;;
44772;SDS011;30492;52.088;5.122;2022-08-19T19:40:09;8.55;;;4.85;;
44772;SDS011;30492;52.088;5.122;2022-08-19T19:43:51;6.57;;;4.10;;
44772;SDS011;30492;52.088;5.122;2022-08-19T19:48:01;5.55;;;3.97;;
44772;SDS011;30492;52.088;5.122;2022-08-19T19:51:20;8.63;;;6.03;;
44772;SDS011;30492;52.088;5.122;2022-08-19T19:55:00;6.03;;;4.30;;
44772;SDS011;30492;52.088;5.122;2022-08-19T19:58:40;8.03;;;6.00;;
44772;SDS011;30492;52.088;5.122;2022-08-19T20:02:20;9.18;;;5.10;;
44772;SDS011;30492;52.088;5.122;2022-08-19T20:05:59;5.70;;;4.60;;
44772;SDS011;30492;52.088;5.122;2022-08-19T20:09:37;7.13;;;5.57;;
44772;SDS011;30492;52.088;5.122;2022-08-19T20:13:16;6.85;;;5.20;;
44772;SDS011;30492;52.088;5.122;2022-08-19T20:16:57;5.93;;;4.57;;
44772;SDS011;30492;52.088;5.122;2022-08-19T20:20:16;8.07;;;5.53;;
44772;SDS011;30492;52.088;5.122;2022-08-19T20:23:56;6.32;;;5.05;;
44772;SDS011;30492;52.088;5.122;2022-08-19T20:27:35;5.95;;;4.28;;
44772;SDS011;30492;52.088;5.122;2022-08-19T20:31:14;11.55;;;5.47;;
44772;SDS011;30492;52.088;5.122;2022-08-19T20:34:53;8.93;;;6.35;;
44772;SDS011;30492;52.088;5.122;2022-08-19T20:38:35;12.18;;;6.82;;
44772;SDS011;30492;52.088;5.122;2022-08-19T20:42:14;9.93;;;6.07;;
44772;SDS011;30492;52.088;5.122;2022-08-19T20:45:53;8.27;;;5.55;;
44772;SDS011;30492;52.088;5.122;2022-08-19T20:53:13;11.77;;;5.30;;
44772;SDS011;30492;52.088;5.122;2022-08-19T20:56:54;9.98;;;7.00;;
44772;SDS011;30492;52.088;5.122;2022-08-19T21:00:33;8.82;;;6.63;;
44772;SDS011;30492;52.088;5.122;2022-08-19T21:04:15;8.98;;;6.15;;
44772;SDS011;30492;52.088;5.122;2022-08-19T21:07:53;8.65;;;6.03;;
44772;SDS011;30492;52.088;5.122;2022-08-19T21:11:35;9.20;;;5.93;;
44772;SDS011;30492;52.088;5.122;2022-08-19T21:18:54;12.23;;;6.85;;
44772;SDS011;30492;52.088;5.122;2022-08-19T21:22:33;9.38;;;5.97;;
44772;SDS011;30492;52.088;5.122;2022-08-19T21:26:12;7.47;;;5.43;;
44772;SDS011;30492;52.088;5.122;2022-08-19T21:29:52;6.75;;;5.15;;
44772;SDS011;30492;52.088;5.122;2022-08-19T21:33:31;7.88;;;5.90;;
44772;SDS011;30492;52.088;5.122;2022-08-19T21:37:09;10.60;;;6.82;;
44772;SDS011;30492;52.088;5.122;2022-08-19T21:40:49;19.15;;;7.75;;
44772;SDS011;30492;52.088;5.122;2022-08-19T21:44:29;7.93;;;5.78;;
44772;SDS011;30492;52.088;5.122;2022-08-19T21:48:10;11.05;;;5.97;;
44772;SDS011;30492;52.088;5.122;2022-08-19T21:51:31;16.55;;;9.50;;
44772;SDS011;30492;52.088;5.122;2022-08-19T21:55:10;11.75;;;8.13;;
44772;SDS011;30492;52.088;5.122;2022-08-19T21:58:49;7.78;;;5.75;;
44772;SDS011;30492;52.088;5.122;2022-08-19T22:02:27;11.45;;;6.30;;
44772;SDS011;30492;52.088;5.122;2022-08-19T22:06:06;9.35;;;4.97;;
44772;SDS011;30492;52.088;5.122;2022-08-19T22:09:47;7.85;;;5.00;;
44772;SDS011;30492;52.088;5.122;2022-08-19T22:13:27;8.02;;;5.45;;
44772;SDS011;30492;52.088;5.122;2022-08-19T22:17:11;13.15;;;5.70;;
44772;SDS011;30492;52.088;5.122;2022-08-19T22:20:51;9.93;;;5.07;;
44772;SDS011;30492;52.088;5.122;2022-08-19T22:24:31;6.72;;;4.40;;
44772;SDS011;30492;52.088;5.122;2022-08-19T22:28:15;10.57;;;4.50;;
44772;SDS011;30492;52.088;5.122;2022-08-19T22:31:54;8.40;;;4.43;;
44772;SDS011;30492;52.088;5.122;2022-08-19T22:35:36;10.52;;;4.55;;
44772;SDS011;30492;52.088;5.122;2022-08-19T22:39:16;9.32;;;4.65;;
44772;SDS011;30492;52.088;5.122;2022-08-19T22:42:57;9.15;;;4.50;;
44772;SDS011;30492;52.088;5.122;2022-08-19T22:46:40;8.13;;;4.88;;